createdAt,value
2023-07-08T00:01:21.280Z,14.85
2023-07-08T00:03:49.355Z,14.80
2023-07-08T00:06:20.843Z,14.77
2023-07-08T00:08:48.254Z,14.74
2023-07-08T00:11:17.002Z,14.72
2023-07-08T00:13:43.951Z,14.70
2023-07-08T00:16:16.491Z,14.69
2023-07-08T00:18:43.282Z,14.65
2023-07-08T00:21:17.856Z,14.64
2023-07-08T00:23:48.213Z,14.59
2023-07-08T00:26:21.687Z,14.56
2023-07-08T00:28:48.470Z,14.53
2023-07-08T00:31:16.641Z,14.49
2023-07-08T00:33:49.510Z,14.46
2023-07-08T00:36:18.520Z,14.41
2023-07-08T00:38:46.547Z,14.38
2023-07-08T00:41:31.640Z,14.36
2023-07-08T00:44:00.275Z,14.35
2023-07-08T00:46:33.110Z,14.33
2023-07-08T00:49:09.477Z,14.33
2023-07-08T00:51:42.987Z,14.32
2023-07-08T00:54:14.197Z,14.31
2023-07-08T00:57:00.788Z,14.31
2023-07-08T00:59:32.519Z,14.29
2023-07-08T01:02:03.597Z,14.27
2023-07-08T01:04:54.713Z,14.23
2023-07-08T01:07:22.894Z,14.17
2023-07-08T01:10:02.123Z,14.15
2023-07-08T01:12:38.087Z,14.14
2023-07-08T01:15:07.918Z,14.14
2023-07-08T01:17:35.195Z,14.13
2023-07-08T01:20:07.259Z,14.13
2023-07-08T01:22:37.937Z,14.15
2023-07-08T01:25:05.663Z,14.17
2023-07-08T01:27:36.663Z,14.18
2023-07-08T01:30:05.764Z,14.20
2023-07-08T01:32:35.516Z,14.17
2023-07-08T01:35:04.404Z,14.16
2023-07-08T01:37:36.940Z,14.16
2023-07-08T01:40:22.546Z,14.17
2023-07-08T01:42:49.289Z,14.16
2023-07-08T01:45:18.950Z,14.16
2023-07-08T01:47:53.037Z,14.17
2023-07-08T01:50:21.228Z,14.16
2023-07-08T01:52:51.138Z,14.15
2023-07-08T01:55:23.626Z,14.07
2023-07-08T01:57:52.763Z,13.99
2023-07-08T02:00:20.590Z,13.98
2023-07-08T02:02:49.891Z,14.00
2023-07-08T02:05:17.991Z,14.01
2023-07-08T02:07:44.793Z,14.00
2023-07-08T02:10:11.788Z,13.99
2023-07-08T02:12:39.645Z,13.97
2023-07-08T02:15:07.213Z,13.93
2023-07-08T02:17:34.369Z,13.92
2023-07-08T02:20:01.212Z,13.89
2023-07-08T02:22:28.121Z,13.83
2023-07-08T02:24:55.346Z,13.79
2023-07-08T02:27:22.105Z,13.75
2023-07-08T02:29:48.883Z,13.71
2023-07-08T02:32:15.967Z,13.67
2023-07-08T02:34:42.784Z,13.64
2023-07-08T02:37:09.517Z,13.59
2023-07-08T02:39:36.339Z,13.56
2023-07-08T02:42:03.172Z,13.52
2023-07-08T02:44:29.966Z,13.50
2023-07-08T02:46:56.710Z,13.47
2023-07-08T02:49:23.730Z,13.42
2023-07-08T02:51:50.435Z,13.40
2023-07-08T02:54:17.240Z,13.38
2023-07-08T02:56:44.027Z,13.36
2023-07-08T02:59:10.833Z,13.38
2023-07-08T03:01:42.871Z,13.39
2023-07-08T03:04:14.221Z,13.40
2023-07-08T03:06:44.961Z,13.41
2023-07-08T03:09:13.927Z,13.44
2023-07-08T03:11:41.312Z,13.43
2023-07-08T03:14:11.461Z,13.44
2023-07-08T03:16:38.366Z,13.43
2023-07-08T03:19:05.981Z,13.46
2023-07-08T03:21:32.955Z,13.49
2023-07-08T03:23:59.700Z,13.52
2023-07-08T03:26:30.564Z,13.55
2023-07-08T03:28:59.961Z,13.58
2023-07-08T03:31:26.783Z,13.62
2023-07-08T03:33:53.597Z,13.63
2023-07-08T03:36:26.607Z,13.64
2023-07-08T03:38:56.748Z,13.68
2023-07-08T03:41:24.753Z,13.74
2023-07-08T03:43:54.511Z,13.82
2023-07-08T03:46:22.460Z,13.88
2023-07-08T03:48:49.797Z,13.93
2023-07-08T03:51:29.808Z,13.98
2023-07-08T03:53:56.815Z,14.04
2023-07-08T03:56:23.776Z,14.10
2023-07-08T03:58:52.369Z,14.14
2023-07-08T04:01:22.110Z,14.15
2023-07-08T04:03:49.143Z,14.15
2023-07-08T04:06:16.161Z,14.18
2023-07-08T04:08:43.511Z,14.22
2023-07-08T04:11:21.579Z,14.30
2023-07-08T04:13:48.933Z,14.36
2023-07-08T04:16:23.278Z,14.46
2023-07-08T04:18:52.215Z,14.54
2023-07-08T04:23:48.936Z,14.76
2023-07-08T04:26:16.216Z,14.84
2023-07-08T04:28:44.141Z,14.90
2023-07-08T04:31:11.790Z,14.95
2023-07-08T04:33:38.651Z,15.02
2023-07-08T04:36:10.962Z,15.09
2023-07-08T04:38:37.866Z,15.18
2023-07-08T04:41:04.732Z,15.27
2023-07-08T04:43:31.489Z,15.35
2023-07-08T04:45:59.086Z,15.43
2023-07-08T04:48:26.409Z,15.53
2023-07-08T04:50:54.491Z,15.64
2023-07-08T04:53:21.443Z,15.75
2023-07-08T04:55:52.159Z,15.82
2023-07-08T04:58:19.156Z,15.91
2023-07-08T05:00:45.983Z,16.01
2023-07-08T05:03:13.100Z,16.12
2023-07-08T05:05:39.887Z,16.22
2023-07-08T05:08:07.792Z,16.30
2023-07-08T05:10:34.911Z,16.37
2023-07-08T05:13:01.986Z,16.45
2023-07-08T05:15:28.759Z,16.55
2023-07-08T05:17:55.546Z,16.83
2023-07-08T05:20:23.345Z,17.98
2023-07-08T05:22:50.078Z,19.73
2023-07-08T05:25:17.252Z,21.57
2023-07-08T05:27:44.123Z,23.37
2023-07-08T05:30:15.963Z,25.11
2023-07-08T05:32:42.915Z,26.72
2023-07-08T05:35:11.077Z,28.24
2023-07-08T05:37:38.506Z,29.71
2023-07-08T05:40:06.111Z,31.22
2023-07-08T05:42:33.115Z,32.61
2023-07-08T05:44:59.945Z,33.79
2023-07-08T05:47:27.786Z,34.31
2023-07-08T05:49:54.617Z,34.05
2023-07-08T05:52:21.626Z,34.11
2023-07-08T05:54:48.489Z,34.65
2023-07-08T05:57:15.228Z,35.30
2023-07-08T05:59:44.405Z,35.73
2023-07-08T06:02:13.246Z,36.47
2023-07-08T06:04:40.889Z,37.53
2023-07-08T06:07:07.873Z,38.64
2023-07-08T06:09:35.183Z,39.50
2023-07-08T06:12:01.915Z,40.47
2023-07-08T06:14:29.254Z,41.31
2023-07-08T06:16:56.754Z,42.09
2023-07-08T06:19:23.755Z,42.79
2023-07-08T06:21:50.583Z,43.60
2023-07-08T06:24:17.863Z,44.45
2023-07-08T06:26:44.594Z,45.21
2023-07-08T06:29:11.330Z,45.87
2023-07-08T06:31:38.132Z,46.58
2023-07-08T06:34:05.431Z,47.11
2023-07-08T06:36:32.800Z,47.37
2023-07-08T06:38:59.389Z,47.57
2023-07-08T06:41:26.207Z,47.62
2023-07-08T06:43:53.809Z,47.70
2023-07-08T06:46:21.189Z,47.88
2023-07-08T06:48:48.461Z,47.99
2023-07-08T06:51:15.102Z,48.05
2023-07-08T06:53:41.956Z,48.06
2023-07-08T06:56:09.433Z,48.21
2023-07-08T06:58:36.455Z,48.20
2023-07-08T07:01:04.106Z,48.50
2023-07-08T07:03:31.240Z,48.87
2023-07-08T07:05:58.105Z,49.43
2023-07-08T07:08:25.159Z,49.78
2023-07-08T07:10:51.730Z,49.97
2023-07-08T07:13:19.848Z,50.32
2023-07-08T07:15:52.402Z,50.66
2023-07-08T07:18:19.627Z,50.94
2023-07-08T07:20:54.844Z,51.20
2023-07-08T07:23:22.049Z,51.46
2023-07-08T07:25:48.787Z,51.74
2023-07-08T07:28:17.868Z,52.07
2023-07-08T07:30:46.172Z,52.40
2023-07-08T07:33:13.905Z,52.60
2023-07-08T07:35:47.357Z,52.72
2023-07-08T07:38:15.985Z,52.63
2023-07-08T07:40:42.832Z,52.66
2023-07-08T07:43:09.872Z,52.78
2023-07-08T07:45:37.007Z,52.95
2023-07-08T07:48:04.409Z,53.14
2023-07-08T07:50:32.132Z,53.36
2023-07-08T07:52:59.860Z,53.53
2023-07-08T07:55:27.125Z,53.64
2023-07-08T07:57:53.913Z,53.65
2023-07-08T08:00:20.860Z,53.59
2023-07-08T08:02:47.926Z,53.65
2023-07-08T08:05:14.849Z,53.85
2023-07-08T08:07:42.148Z,54.13
2023-07-08T08:10:11.280Z,54.30
2023-07-08T08:12:48.603Z,54.33
2023-07-08T08:15:19.663Z,54.27
2023-07-08T08:17:50.172Z,53.94
2023-07-08T08:20:17.466Z,54.02
2023-07-08T08:22:44.614Z,54.13
2023-07-08T08:25:11.576Z,53.80
2023-07-08T08:27:38.605Z,53.88
2023-07-08T08:30:07.136Z,54.05
2023-07-08T08:32:34.281Z,54.11
2023-07-08T08:35:02.957Z,54.15
2023-07-08T08:37:30.613Z,54.24
2023-07-08T08:39:57.561Z,54.40
2023-07-08T08:42:33.844Z,54.48
2023-07-08T08:45:03.700Z,54.19
2023-07-08T08:47:40.433Z,54.12
2023-07-08T08:50:29.477Z,54.10
2023-07-08T08:52:57.987Z,54.09
2023-07-08T08:55:26.368Z,53.69
2023-07-08T08:58:12.608Z,53.40
2023-07-08T09:00:48.157Z,53.00
2023-07-08T09:03:34.127Z,52.87
2023-07-08T09:06:02.164Z,52.71
2023-07-08T09:08:33.488Z,52.42
2023-07-08T09:11:22.095Z,52.22
2023-07-08T09:13:50.208Z,52.02
2023-07-08T09:16:44.587Z,51.63
2023-07-08T09:19:26.695Z,50.94
2023-07-08T09:22:05.849Z,49.85
2023-07-08T09:24:46.227Z,48.22
2023-07-08T09:27:13.112Z,46.42
2023-07-08T09:29:39.887Z,44.87
2023-07-08T09:32:23.038Z,43.33
2023-07-08T09:34:56.808Z,41.88
2023-07-08T09:37:47.251Z,40.41
2023-07-08T09:40:33.749Z,39.24
2023-07-08T09:43:14.978Z,37.90
2023-07-08T09:45:45.775Z,36.80
2023-07-08T09:48:31.514Z,35.89
2023-07-08T09:51:00.021Z,35.18
2023-07-08T09:53:30.576Z,34.47
2023-07-08T09:56:03.921Z,33.78
2023-07-08T09:58:35.515Z,33.11
2023-07-08T10:01:11.903Z,32.42
2023-07-08T10:03:40.787Z,31.71
2023-07-08T10:06:23.291Z,30.90
2023-07-08T10:08:50.430Z,30.22
2023-07-08T10:11:28.383Z,29.88
2023-07-08T10:14:13.408Z,29.38
2023-07-08T10:16:41.441Z,28.62
2023-07-08T10:19:17.673Z,28.13
2023-07-08T10:21:59.250Z,27.88
2023-07-08T10:24:34.909Z,27.64
2023-07-08T10:27:20.024Z,27.50
2023-07-08T10:30:07.367Z,27.45
2023-07-08T10:33:14.549Z,27.43
2023-07-08T10:36:23.184Z,27.20
2023-07-08T10:38:55.116Z,26.88
2023-07-08T10:42:01.632Z,26.78
2023-07-08T10:44:39.104Z,26.81
2023-07-08T10:47:46.299Z,26.83
2023-07-08T10:50:28.952Z,26.81
2023-07-08T10:53:10.585Z,26.78
2023-07-08T10:55:51.810Z,26.75
2023-07-08T10:58:33.471Z,26.57
2023-07-08T11:01:06.642Z,26.35
2023-07-08T11:03:46.324Z,26.18
2023-07-08T11:06:27.925Z,26.06
2023-07-08T11:09:03.288Z,25.91
2023-07-08T11:11:52.459Z,25.77
2023-07-08T11:14:50.995Z,25.75
2023-07-08T11:17:31.924Z,25.65
2023-07-08T11:20:19.678Z,25.57
2023-07-08T11:22:59.802Z,25.50
2023-07-08T11:25:30.846Z,25.44
2023-07-08T11:28:04.090Z,25.39
2023-07-08T11:30:34.339Z,25.34
2023-07-08T11:33:10.222Z,25.35
2023-07-08T11:35:48.050Z,25.48
2023-07-08T11:38:19.470Z,25.52
2023-07-08T11:41:01.694Z,25.44
2023-07-08T11:43:57.268Z,25.39
2023-07-08T11:46:31.515Z,25.29
2023-07-08T11:49:15.650Z,25.29
2023-07-08T11:51:47.068Z,25.34
2023-07-08T11:54:30.532Z,25.48
2023-07-08T11:57:25.264Z,25.63
2023-07-08T12:00:14.126Z,25.78
2023-07-08T12:02:59.531Z,25.83
2023-07-08T12:05:36.877Z,25.81
2023-07-08T12:08:12.531Z,25.69
2023-07-08T12:10:44.900Z,25.55
2023-07-08T12:13:18.439Z,25.48
2023-07-08T12:15:45.430Z,25.47
2023-07-08T12:18:23.613Z,25.54
2023-07-08T12:20:56.471Z,25.55
2023-07-08T12:23:25.534Z,25.59
2023-07-08T12:25:54.429Z,25.66
2023-07-08T12:28:22.875Z,25.77
2023-07-08T12:30:52.466Z,25.84
2023-07-08T12:33:33.186Z,25.89
2023-07-08T12:36:02.238Z,25.76
2023-07-08T12:38:33.883Z,25.69
2023-07-08T12:41:06.929Z,25.70
2023-07-08T12:43:33.934Z,25.74
2023-07-08T12:46:00.709Z,25.83
2023-07-08T12:48:33.058Z,25.89
2023-07-08T12:50:59.964Z,25.89
2023-07-08T12:53:27.181Z,25.98
2023-07-08T12:55:56.493Z,26.00
2023-07-08T12:58:29.790Z,25.98
2023-07-08T13:00:59.669Z,25.97
2023-07-08T13:03:32.527Z,26.02
2023-07-08T13:06:02.123Z,25.99
2023-07-08T13:08:35.989Z,25.95
2023-07-08T13:11:07.446Z,25.97
2023-07-08T13:13:41.536Z,25.97
2023-07-08T13:16:11.690Z,25.89
2023-07-08T13:18:42.297Z,25.79
2023-07-08T13:21:13.734Z,25.79
2023-07-08T13:23:41.653Z,25.74
2023-07-08T13:26:23.056Z,25.65
2023-07-08T13:28:51.273Z,25.62
2023-07-08T13:31:25.532Z,25.66
2023-07-08T13:33:55.074Z,25.67
2023-07-08T13:36:36.133Z,25.76
2023-07-08T13:39:07.924Z,25.85
2023-07-08T13:41:35.571Z,25.95
2023-07-08T13:44:07.723Z,26.02
2023-07-08T13:46:42.061Z,26.01
2023-07-08T13:49:15.884Z,25.93
2023-07-08T13:51:43.338Z,25.90
2023-07-08T13:54:40.038Z,25.95
2023-07-08T13:57:18.515Z,26.00
2023-07-08T13:59:46.182Z,26.02
2023-07-08T14:02:24.629Z,26.08
2023-07-08T14:04:53.857Z,26.10
2023-07-08T14:07:23.678Z,26.14
2023-07-08T14:09:50.798Z,26.17
2023-07-08T14:12:17.562Z,26.19
2023-07-08T14:14:44.304Z,26.18
2023-07-08T14:17:15.751Z,26.18
2023-07-08T14:19:42.534Z,26.15
2023-07-08T14:22:29.386Z,26.14
2023-07-08T14:24:58.095Z,26.13
2023-07-08T14:27:25.630Z,26.11
2023-07-08T14:29:53.492Z,26.12
2023-07-08T14:32:32.242Z,26.15
2023-07-08T14:35:12.150Z,26.17
2023-07-08T14:37:41.154Z,26.19
2023-07-08T14:40:32.955Z,26.24
2023-07-08T14:43:03.132Z,26.26
2023-07-08T14:45:33.135Z,26.30
2023-07-08T14:48:00.281Z,26.32
2023-07-08T14:50:31.636Z,26.31
2023-07-08T14:52:58.484Z,26.33
2023-07-08T14:55:26.101Z,26.34
2023-07-08T14:57:53.612Z,26.29
2023-07-08T15:00:20.821Z,26.23
2023-07-08T15:02:49.549Z,26.23
2023-07-08T15:05:24.285Z,26.29
2023-07-08T15:07:53.569Z,26.30
2023-07-08T15:10:25.388Z,26.31
2023-07-08T15:12:52.265Z,26.25
2023-07-08T15:15:29.873Z,26.26
2023-07-08T15:18:02.234Z,26.23
2023-07-08T15:20:33.653Z,26.20
2023-07-08T15:23:01.481Z,26.19
2023-07-08T15:25:28.712Z,26.20
2023-07-08T15:27:58.300Z,26.23
2023-07-08T15:30:29.254Z,26.29
2023-07-08T15:32:57.386Z,26.34
2023-07-08T15:35:27.096Z,26.34
2023-07-08T15:37:54.155Z,26.33
2023-07-08T15:40:23.833Z,26.35
2023-07-08T15:42:53.158Z,26.37
2023-07-08T15:45:41.687Z,26.41
2023-07-08T15:48:15.654Z,26.39
2023-07-08T15:50:43.422Z,26.38
2023-07-08T15:53:10.312Z,26.38
2023-07-08T15:55:45.658Z,26.41
2023-07-08T15:58:20.096Z,26.42
2023-07-08T16:00:46.974Z,26.38
2023-07-08T16:03:25.054Z,26.36
2023-07-08T16:05:53.527Z,26.35
2023-07-08T16:08:20.491Z,26.35
2023-07-08T16:10:53.787Z,26.35
2023-07-08T16:13:29.835Z,26.39
2023-07-08T16:15:56.799Z,26.43
2023-07-08T16:18:23.753Z,26.45
2023-07-08T16:20:50.785Z,26.45
2023-07-08T16:23:17.677Z,26.44
2023-07-08T16:25:47.340Z,26.42
2023-07-08T16:28:44.263Z,26.35
2023-07-08T16:31:16.169Z,26.24
2023-07-08T16:33:43.848Z,26.17
2023-07-08T16:36:16.672Z,26.15
2023-07-08T16:38:43.865Z,26.10
2023-07-08T16:41:13.885Z,26.05
2023-07-08T16:43:41.542Z,26.02
2023-07-08T16:46:13.974Z,25.91
2023-07-08T16:48:44.599Z,25.85
2023-07-08T16:51:21.159Z,25.81
2023-07-08T16:53:48.110Z,25.78
2023-07-08T16:56:19.315Z,25.80
2023-07-08T16:58:46.151Z,25.79
2023-07-08T17:01:21.034Z,25.79
2023-07-08T17:03:49.983Z,25.83
2023-07-08T17:06:16.953Z,25.81
2023-07-08T17:08:45.156Z,25.81
2023-07-08T17:11:14.517Z,25.81
2023-07-08T17:13:42.296Z,25.76
2023-07-08T17:16:15.089Z,25.71
2023-07-08T17:18:41.944Z,25.64
2023-07-08T17:21:14.066Z,25.53
2023-07-08T17:23:41.779Z,25.43
2023-07-08T17:26:08.719Z,25.33
2023-07-08T17:28:36.876Z,25.26
2023-07-08T17:31:05.456Z,25.18
2023-07-08T17:33:33.496Z,25.05
2023-07-08T17:36:00.993Z,24.91
2023-07-08T17:38:48.009Z,24.78
2023-07-08T17:41:20.730Z,24.66
2023-07-08T17:43:48.810Z,24.58
2023-07-08T17:46:20.575Z,24.46
2023-07-08T17:48:48.909Z,24.34
2023-07-08T17:51:17.293Z,24.23
2023-07-08T17:53:45.070Z,24.11
2023-07-08T17:56:19.363Z,24.02
2023-07-08T17:58:51.729Z,23.91
2023-07-08T18:01:20.431Z,23.80
2023-07-08T18:03:49.859Z,23.70
2023-07-08T18:06:17.858Z,23.60
2023-07-08T18:08:45.932Z,23.50
2023-07-08T18:11:15.095Z,23.41
2023-07-08T18:13:42.864Z,23.31
2023-07-08T18:16:17.897Z,23.19
2023-07-08T18:18:47.383Z,23.10
2023-07-08T18:21:20.346Z,23.00
2023-07-08T18:23:49.723Z,22.91
2023-07-08T18:26:27.507Z,22.82
2023-07-08T18:28:55.516Z,22.73
2023-07-08T18:31:32.170Z,22.65
2023-07-08T18:34:03.573Z,22.57
2023-07-08T18:36:31.085Z,22.50
2023-07-08T18:38:58.475Z,22.42
2023-07-08T18:41:29.644Z,22.34
2023-07-08T18:43:57.965Z,22.25
2023-07-08T18:46:25.505Z,22.18
2023-07-08T18:48:52.429Z,22.10
2023-07-08T18:51:27.047Z,22.01
2023-07-08T18:53:55.224Z,21.92
2023-07-08T18:56:22.053Z,21.87
2023-07-08T18:58:50.239Z,21.79
2023-07-08T19:01:28.433Z,21.71
2023-07-08T19:03:58.340Z,21.62
2023-07-08T19:06:26.206Z,21.56
2023-07-08T19:08:53.044Z,21.49
2023-07-08T19:11:23.435Z,21.40
2023-07-08T19:13:51.460Z,21.33
2023-07-08T19:16:21.596Z,21.27
2023-07-08T19:18:51.371Z,21.18
2023-07-08T19:21:28.128Z,21.08
2023-07-08T19:23:56.198Z,21.02
2023-07-08T19:26:25.822Z,20.93
2023-07-08T19:28:54.326Z,20.85
2023-07-08T19:31:29.626Z,20.72
2023-07-08T19:33:57.381Z,20.65
2023-07-08T19:36:24.324Z,20.60
2023-07-08T19:38:51.732Z,20.55
2023-07-08T19:41:25.263Z,20.51
2023-07-08T19:43:53.308Z,20.39
2023-07-08T19:46:20.260Z,20.32
2023-07-08T19:48:47.231Z,20.26
2023-07-08T19:51:14.436Z,20.24
2023-07-08T19:53:41.575Z,20.17
2023-07-08T19:56:16.856Z,20.11
2023-07-08T19:58:46.110Z,20.01
2023-07-08T20:01:13.535Z,19.92
2023-07-08T20:03:40.724Z,19.83
2023-07-08T20:06:21.696Z,19.76
2023-07-08T20:08:48.533Z,19.66
2023-07-08T20:11:16.668Z,19.59
2023-07-08T20:13:43.545Z,19.51
2023-07-08T20:16:26.266Z,19.43
2023-07-08T20:18:59.554Z,19.40
2023-07-08T20:21:27.195Z,19.36
2023-07-08T20:23:54.307Z,19.25
2023-07-08T20:26:34.054Z,19.18
2023-07-08T20:29:00.888Z,19.12
2023-07-08T20:31:28.664Z,19.04
2023-07-08T20:33:55.774Z,18.99
2023-07-08T20:36:25.071Z,18.96
2023-07-08T20:38:52.090Z,18.87
2023-07-08T20:41:19.798Z,18.84
2023-07-08T20:43:46.593Z,18.81
2023-07-08T20:46:20.954Z,18.79
2023-07-08T20:48:48.784Z,18.76
2023-07-08T20:51:16.474Z,18.71
2023-07-08T20:53:43.378Z,18.65
2023-07-08T20:56:23.848Z,18.62
2023-07-08T20:58:51.408Z,18.57
2023-07-08T21:01:18.270Z,18.53
2023-07-08T21:03:48.062Z,18.49
2023-07-08T21:06:24.104Z,18.47
2023-07-08T21:08:56.387Z,18.44
2023-07-08T21:11:23.193Z,18.40
2023-07-08T21:13:50.650Z,18.36
2023-07-08T21:16:24.475Z,18.34
2023-07-08T21:18:53.729Z,18.30
2023-07-08T21:21:21.855Z,18.26
2023-07-08T21:23:49.633Z,18.24
2023-07-08T21:26:25.812Z,18.21
2023-07-08T21:28:55.091Z,18.18
2023-07-08T21:31:22.009Z,18.18
2023-07-08T21:33:50.720Z,18.14
2023-07-08T21:36:24.956Z,18.13
2023-07-08T21:38:53.630Z,18.12
2023-07-08T21:41:21.053Z,18.11
2023-07-08T21:43:47.913Z,18.08
2023-07-08T21:46:14.840Z,18.07
2023-07-08T21:48:42.221Z,18.06
2023-07-08T21:51:27.362Z,18.05
2023-07-08T21:53:54.895Z,18.01
2023-07-08T21:56:21.965Z,18.01
2023-07-08T21:58:49.081Z,17.99
2023-07-08T22:01:27.755Z,17.98
2023-07-08T22:03:57.406Z,17.97
2023-07-08T22:06:25.269Z,17.95
2023-07-08T22:08:52.062Z,17.95
2023-07-08T22:11:26.996Z,17.94
2023-07-08T22:13:56.737Z,17.93
2023-07-08T22:16:24.963Z,17.93
2023-07-08T22:18:53.136Z,17.92
2023-07-08T22:21:29.759Z,17.90
2023-07-08T22:24:02.026Z,17.89
2023-07-08T22:26:29.893Z,17.88
2023-07-08T22:28:56.762Z,17.86
2023-07-08T22:31:27.370Z,17.84
2023-07-08T22:33:54.761Z,17.82
2023-07-08T22:36:22.358Z,17.78
2023-07-08T22:39:09.234Z,17.77
2023-07-08T22:41:46.113Z,17.73
2023-07-08T22:46:42.203Z,17.66
2023-07-08T22:49:09.410Z,17.62
2023-07-08T22:51:42.753Z,17.60
2023-07-08T22:54:15.490Z,17.58
2023-07-08T22:56:42.770Z,17.54
2023-07-08T22:59:09.584Z,17.52
2023-07-08T23:01:36.405Z,17.49
2023-07-08T23:04:03.557Z,17.47
2023-07-08T23:06:30.701Z,17.44
2023-07-08T23:08:57.512Z,17.43
2023-07-08T23:11:24.535Z,17.41
2023-07-08T23:13:51.635Z,17.38
2023-07-08T23:16:27.004Z,17.35
2023-07-08T23:18:54.380Z,17.32
2023-07-08T23:21:23.911Z,17.29
2023-07-08T23:23:50.917Z,17.28
2023-07-08T23:26:23.676Z,17.24
2023-07-08T23:28:56.023Z,17.23
2023-07-08T23:31:23.481Z,17.21
2023-07-08T23:33:50.426Z,17.19
2023-07-08T23:36:35.710Z,17.18
2023-07-08T23:39:04.861Z,17.16
2023-07-08T23:41:33.292Z,17.15
2023-07-08T23:44:00.253Z,17.13
2023-07-08T23:46:31.865Z,17.14
2023-07-08T23:49:11.458Z,17.13
2023-07-08T23:51:38.058Z,17.09
2023-07-08T23:54:11.156Z,17.06
2023-07-08T23:56:38.208Z,17.03
2023-07-08T23:59:05.025Z,17.02
